createdAt,value
2023-01-19T00:00:55.726Z,17.80
2023-01-19T00:03:22.467Z,16.00
2023-01-19T00:05:49.292Z,20.13
2023-01-19T00:08:16.313Z,18.20
2023-01-19T00:10:51.051Z,20.08
2023-01-19T00:13:17.839Z,18.05
2023-01-19T00:15:45.443Z,19.17
2023-01-19T00:18:13.341Z,18.27
2023-01-19T00:20:40.555Z,20.00
2023-01-19T00:23:08.238Z,20.90
2023-01-19T00:25:42.164Z,19.15
2023-01-19T00:28:13.585Z,27.63
2023-01-19T00:30:42.046Z,21.20
2023-01-19T00:33:10.342Z,27.00
2023-01-19T00:35:37.163Z,19.30
2023-01-19T00:38:04.086Z,21.67
2023-01-19T00:40:30.946Z,20.48
2023-01-19T00:42:58.723Z,22.20
2023-01-19T00:45:25.832Z,21.33
2023-01-19T00:47:56.777Z,22.42
2023-01-19T00:50:25.753Z,19.40
2023-01-19T00:52:54.583Z,19.70
2023-01-19T00:55:21.699Z,21.50
2023-01-19T00:57:48.896Z,20.13
2023-01-19T01:00:19.653Z,18.45
2023-01-19T01:02:48.300Z,20.35
2023-01-19T01:05:16.010Z,24.42
2023-01-19T01:07:44.611Z,21.55
2023-01-19T01:10:18.384Z,20.45
2023-01-19T01:12:55.177Z,21.45
2023-01-19T01:15:26.260Z,20.00
2023-01-19T01:17:53.143Z,19.58
2023-01-19T01:20:27.712Z,23.23
2023-01-19T01:22:55.870Z,23.10
2023-01-19T01:25:26.362Z,22.70
2023-01-19T01:27:53.766Z,22.30
2023-01-19T01:30:21.739Z,23.10
2023-01-19T01:32:49.260Z,19.15
2023-01-19T01:35:16.482Z,21.77
2023-01-19T01:37:43.354Z,19.38
2023-01-19T01:40:15.620Z,18.98
2023-01-19T01:45:38.224Z,20.35
2023-01-19T01:48:17.784Z,25.52
2023-01-19T01:51:24.422Z,19.67
2023-01-19T01:54:16.232Z,18.23
2023-01-19T01:56:47.297Z,18.92
2023-01-19T01:59:29.666Z,21.42
2023-01-19T02:04:50.694Z,22.17
2023-01-19T02:08:10.533Z,17.83
2023-01-19T02:10:56.852Z,18.38
2023-01-19T02:13:25.463Z,21.25
2023-01-19T02:15:55.684Z,15.40
2023-01-19T02:18:26.869Z,22.75
2023-01-19T02:21:16.391Z,20.20
2023-01-19T02:23:50.397Z,17.13
2023-01-19T02:26:41.029Z,21.05
2023-01-19T02:29:11.865Z,18.90
2023-01-19T02:31:40.030Z,16.38
2023-01-19T02:34:10.508Z,20.38
2023-01-19T02:36:52.403Z,19.38
2023-01-19T02:39:26.906Z,20.83
2023-01-19T02:42:02.624Z,18.17
2023-01-19T02:44:31.370Z,24.00
2023-01-19T02:46:58.214Z,18.33
2023-01-19T02:49:28.712Z,22.77
2023-01-19T02:51:56.124Z,19.88
2023-01-19T02:55:00.139Z,21.05
2023-01-19T02:58:03.078Z,18.75
2023-01-19T03:01:08.587Z,21.48
2023-01-19T03:04:15.873Z,21.70
2023-01-19T03:07:12.790Z,16.58
2023-01-19T03:09:53.062Z,18.98
2023-01-19T03:12:45.110Z,18.70
2023-01-19T03:15:29.291Z,17.65
2023-01-19T03:17:58.204Z,17.05
2023-01-19T03:20:28.682Z,19.05
2023-01-19T03:23:03.071Z,18.65
2023-01-19T03:25:35.649Z,24.20
2023-01-19T03:28:04.798Z,15.82
2023-01-19T03:30:39.872Z,21.23
2023-01-19T03:33:14.698Z,19.38
2023-01-19T03:35:47.614Z,15.45
2023-01-19T03:38:17.263Z,19.02
2023-01-19T03:40:45.464Z,14.57
2023-01-19T03:43:15.765Z,15.85
2023-01-19T03:45:44.398Z,17.58
2023-01-19T03:48:11.400Z,17.70
2023-01-19T03:50:38.448Z,22.85
2023-01-19T03:53:15.619Z,21.83
2023-01-19T03:55:48.683Z,22.02
2023-01-19T03:58:15.435Z,18.60
2023-01-19T04:00:42.285Z,17.23
2023-01-19T04:03:17.544Z,20.50
2023-01-19T04:05:46.017Z,21.48
2023-01-19T04:08:13.072Z,24.23
2023-01-19T04:10:39.883Z,20.67
2023-01-19T04:13:06.796Z,21.98
2023-01-19T04:15:33.666Z,20.83
2023-01-19T04:18:01.279Z,28.75
2023-01-19T04:20:29.079Z,24.55
2023-01-19T04:22:59.949Z,24.77
2023-01-19T04:25:28.123Z,22.50
2023-01-19T04:27:55.574Z,22.52
2023-01-19T04:30:22.612Z,29.92
2023-01-19T04:32:49.544Z,26.02
2023-01-19T04:35:16.984Z,33.80
2023-01-19T04:37:44.995Z,32.47
2023-01-19T04:40:12.244Z,38.13
2023-01-19T04:42:45.515Z,35.80
2023-01-19T04:45:13.794Z,37.05
2023-01-19T04:47:42.499Z,41.58
2023-01-19T04:50:11.208Z,32.47
2023-01-19T04:52:38.623Z,30.70
2023-01-19T04:55:07.105Z,40.22
2023-01-19T04:57:33.862Z,40.38
2023-01-19T05:00:00.770Z,41.47
2023-01-19T05:02:27.668Z,28.20
2023-01-19T05:04:54.529Z,29.42
2023-01-19T05:07:21.277Z,27.65
2023-01-19T05:09:48.045Z,35.50
2023-01-19T05:12:14.924Z,33.20
2023-01-19T05:14:41.672Z,26.77
2023-01-19T05:17:08.471Z,22.77
2023-01-19T05:19:35.449Z,24.42
2023-01-19T05:22:04.161Z,33.40
2023-01-19T05:24:31.819Z,27.67
2023-01-19T05:26:58.882Z,23.05
2023-01-19T05:29:25.600Z,19.80
2023-01-19T05:31:52.338Z,24.42
2023-01-19T05:34:19.062Z,20.67
2023-01-19T05:36:45.856Z,23.77
2023-01-19T06:02:19.652Z,25.88
2023-01-19T06:04:46.398Z,27.73
2023-01-19T06:07:13.127Z,23.02
2023-01-19T06:09:39.884Z,23.27
2023-01-19T06:12:06.915Z,20.25
2023-01-19T06:14:33.704Z,21.27
2023-01-19T06:17:00.490Z,23.25
2023-01-19T06:19:27.296Z,19.98
2023-01-19T06:21:54.055Z,23.65
2023-01-19T06:24:20.797Z,24.33
2023-01-19T06:26:47.573Z,21.98
2023-01-19T06:29:14.652Z,21.17
2023-01-19T06:31:41.907Z,25.70
2023-01-19T06:34:09.018Z,29.73
2023-01-19T06:36:36.223Z,26.10
2023-01-19T06:39:05.779Z,24.05
2023-01-19T06:41:33.794Z,23.50
2023-01-19T06:44:00.702Z,23.27
2023-01-19T06:46:27.789Z,27.88
2023-01-19T06:48:54.781Z,22.05
2023-01-19T06:51:22.647Z,21.10
2023-01-19T06:53:49.939Z,24.35
2023-01-19T06:56:16.733Z,23.77
2023-01-19T06:58:43.510Z,24.05
2023-01-19T07:01:10.842Z,24.83
2023-01-19T07:03:38.488Z,27.80
2023-01-19T07:06:09.019Z,27.25
2023-01-19T07:08:37.286Z,21.25
2023-01-19T07:11:26.905Z,22.98
2023-01-19T07:13:55.380Z,24.00
2023-01-19T07:16:22.315Z,28.88
2023-01-19T07:18:50.019Z,23.27
2023-01-19T07:21:16.796Z,26.00
2023-01-19T07:23:43.600Z,26.65
2023-01-19T07:26:10.806Z,27.13
2023-01-19T07:28:37.694Z,25.17
2023-01-19T07:31:04.611Z,27.27
2023-01-19T07:33:31.388Z,26.55
2023-01-19T07:35:58.260Z,27.75
2023-01-19T07:38:25.203Z,30.23
2023-01-19T07:40:52.003Z,29.15
2023-01-19T07:43:18.766Z,27.60
2023-01-19T07:45:45.511Z,26.52
2023-01-19T07:48:12.314Z,34.92
2023-01-19T07:50:39.086Z,29.17
2023-01-19T07:53:09.848Z,29.55
2023-01-19T07:55:36.592Z,28.08
2023-01-19T07:58:07.340Z,30.63
2023-01-19T08:00:36.206Z,25.55
2023-01-19T08:03:04.856Z,28.98
2023-01-19T08:05:35.481Z,29.65
2023-01-19T08:08:02.253Z,31.38
2023-01-19T08:10:29.358Z,32.00
2023-01-19T08:12:57.731Z,34.75
2023-01-19T08:15:25.300Z,30.25
2023-01-19T08:18:00.781Z,37.05
2023-01-19T08:20:29.131Z,40.53
2023-01-19T08:22:59.936Z,35.72
2023-01-19T08:25:33.011Z,35.20
2023-01-19T08:27:59.852Z,45.63
2023-01-19T08:30:26.934Z,36.70
2023-01-19T08:32:57.860Z,35.05
2023-01-19T08:35:24.720Z,33.17
2023-01-19T08:37:51.517Z,41.63
2023-01-19T08:40:18.396Z,41.15
2023-01-19T08:42:45.552Z,46.33
2023-01-19T08:45:12.326Z,35.47
2023-01-19T08:47:39.114Z,36.45
2023-01-19T08:50:06.559Z,35.95
2023-01-19T08:52:33.278Z,37.45
2023-01-19T08:55:00.658Z,31.98
2023-01-19T08:57:27.965Z,36.55
2023-01-19T08:59:54.702Z,40.15
2023-01-19T09:02:21.614Z,34.15
2023-01-19T09:04:48.773Z,35.13
2023-01-19T09:07:15.574Z,43.20
2023-01-19T09:09:43.435Z,40.88
2023-01-19T09:12:10.270Z,37.15
2023-01-19T09:14:37.083Z,36.20
2023-01-19T09:17:04.165Z,40.60
2023-01-19T09:19:30.885Z,44.38
2023-01-19T09:21:59.386Z,40.03
2023-01-19T09:24:26.574Z,36.80
2023-01-19T09:26:53.321Z,43.90
2023-01-19T09:29:20.265Z,41.55
2023-01-19T09:31:47.075Z,51.25
2023-01-19T09:34:13.821Z,38.95
2023-01-19T09:36:40.587Z,40.60
2023-01-19T09:39:07.567Z,45.53
2023-01-19T09:41:36.067Z,48.45
2023-01-19T09:44:03.509Z,40.13
2023-01-19T09:46:48.750Z,38.30
2023-01-19T09:49:32.658Z,33.80
2023-01-19T09:52:00.004Z,36.25
2023-01-19T09:54:44.253Z,38.30
2023-01-19T09:57:12.105Z,35.63
2023-01-19T09:59:38.994Z,36.78
2023-01-19T10:02:25.595Z,36.25
2023-01-19T10:05:05.263Z,45.58
2023-01-19T10:07:53.060Z,48.85
2023-01-19T10:10:32.275Z,43.78
2023-01-19T10:13:13.927Z,33.17
2023-01-19T10:16:27.340Z,37.47
2023-01-19T10:19:02.312Z,48.38
2023-01-19T10:21:42.124Z,43.45
2023-01-19T10:24:29.544Z,39.22
2023-01-19T10:26:57.334Z,38.58
2023-01-19T10:29:37.565Z,33.65
2023-01-19T10:32:21.061Z,35.58
2023-01-19T10:34:49.734Z,34.67
2023-01-19T10:37:30.017Z,34.72
2023-01-19T10:40:19.972Z,29.88
2023-01-19T10:42:46.777Z,36.88
2023-01-19T10:45:21.024Z,30.67
2023-01-19T10:47:49.778Z,33.25
2023-01-19T10:50:32.545Z,37.22
2023-01-19T10:53:05.840Z,34.35
2023-01-19T10:55:39.026Z,29.15
2023-01-19T10:58:27.252Z,30.38
2023-01-19T11:00:54.249Z,33.90
2023-01-19T11:03:28.337Z,32.47
2023-01-19T11:06:18.525Z,29.92
2023-01-19T11:08:47.752Z,32.78
2023-01-19T11:11:14.691Z,30.90
2023-01-19T11:13:45.249Z,34.80
2023-01-19T11:16:26.128Z,30.65
2023-01-19T11:18:55.806Z,34.35
2023-01-19T11:21:26.114Z,38.03
2023-01-19T11:24:02.540Z,27.73
2023-01-19T11:26:44.867Z,38.00
2023-01-19T11:29:26.252Z,27.80
2023-01-19T11:31:55.315Z,25.67
2023-01-19T11:34:39.973Z,34.45
2023-01-19T11:37:31.635Z,29.95
2023-01-19T11:40:02.441Z,28.57
2023-01-19T11:42:33.252Z,28.95
2023-01-19T11:45:19.264Z,33.28
2023-01-19T11:47:52.519Z,30.17
2023-01-19T11:50:49.261Z,34.15
2023-01-19T11:53:25.607Z,24.42
2023-01-19T11:56:04.559Z,27.50
2023-01-19T11:58:38.863Z,31.25
2023-01-19T12:01:25.299Z,31.38
2023-01-19T12:04:10.368Z,29.77
2023-01-19T12:06:54.887Z,27.20
2023-01-19T12:09:30.253Z,33.92
2023-01-19T12:12:25.765Z,28.23
2023-01-19T12:15:26.076Z,33.42
2023-01-19T12:17:58.538Z,30.20
2023-01-19T12:20:40.496Z,29.92
2023-01-19T12:23:33.561Z,25.55
2023-01-19T12:26:27.758Z,29.98
2023-01-19T12:29:01.288Z,38.15
2023-01-19T12:31:28.674Z,36.53
2023-01-19T12:33:55.605Z,28.48
2023-01-19T12:36:35.429Z,29.02
2023-01-19T12:39:15.604Z,32.38
2023-01-19T12:41:43.193Z,32.30
2023-01-19T12:44:09.845Z,34.85
2023-01-19T12:46:47.655Z,37.38
2023-01-19T12:49:27.643Z,29.60
2023-01-19T12:52:19.507Z,32.55
2023-01-19T12:55:07.146Z,27.92
2023-01-19T12:57:47.787Z,32.40
2023-01-19T13:00:23.331Z,31.95
2023-01-19T13:02:57.766Z,28.15
2023-01-19T13:05:39.523Z,32.28
2023-01-19T13:08:06.416Z,24.90
2023-01-19T13:11:06.248Z,27.23
2023-01-19T13:13:36.707Z,40.65
2023-01-19T13:16:18.794Z,24.88
2023-01-19T13:18:54.034Z,25.48
2023-01-19T13:21:33.782Z,33.05
2023-01-19T13:24:14.905Z,24.90
2023-01-19T13:26:51.398Z,33.15
2023-01-19T13:29:37.864Z,25.35
2023-01-19T13:32:14.018Z,26.38
2023-01-19T13:34:45.192Z,27.58
2023-01-19T13:37:26.447Z,25.85
2023-01-19T13:39:54.807Z,24.13
2023-01-19T13:42:33.091Z,24.80
2023-01-19T13:45:24.836Z,28.98
2023-01-19T13:47:53.416Z,23.50
2023-01-19T13:50:30.264Z,26.15
2023-01-19T13:52:58.865Z,21.77
2023-01-19T13:55:31.151Z,28.58
2023-01-19T14:00:28.490Z,28.85
2023-01-19T14:03:21.313Z,27.45
2023-01-19T14:05:54.833Z,24.15
2023-01-19T14:08:23.047Z,21.00
2023-01-19T14:11:00.190Z,26.02
2023-01-19T14:13:39.996Z,22.13
2023-01-19T14:16:15.558Z,27.23
2023-01-19T14:18:42.519Z,17.85
2023-01-19T14:21:13.720Z,23.42
2023-01-19T14:23:57.849Z,19.90
2023-01-19T14:26:48.636Z,23.70
2023-01-19T14:29:31.859Z,17.05
2023-01-19T14:32:14.213Z,19.13
2023-01-19T14:34:49.528Z,22.30
2023-01-19T14:37:27.291Z,19.27
2023-01-19T14:40:12.974Z,16.52
2023-01-19T14:42:47.243Z,21.67
2023-01-19T14:45:22.663Z,22.20
2023-01-19T14:48:06.383Z,22.05
2023-01-19T14:50:37.864Z,21.17
2023-01-19T14:53:26.443Z,19.40
2023-01-19T14:56:00.973Z,17.40
2023-01-19T14:58:32.318Z,28.20
2023-01-19T15:00:59.509Z,24.70
2023-01-19T15:03:43.391Z,23.27
2023-01-19T15:06:16.452Z,22.52
2023-01-19T15:08:44.057Z,21.13
2023-01-19T15:11:32.710Z,19.35
2023-01-19T15:14:00.550Z,24.70
2023-01-19T15:16:31.558Z,35.88
2023-01-19T15:18:58.393Z,26.17
2023-01-19T15:21:28.371Z,22.67
2023-01-19T15:23:55.572Z,24.58
2023-01-19T15:26:25.548Z,21.13
2023-01-19T15:28:53.138Z,19.13
2023-01-19T15:31:23.225Z,24.02
2023-01-19T15:33:50.278Z,23.08
2023-01-19T15:36:20.298Z,24.02
2023-01-19T15:38:50.710Z,21.17
2023-01-19T15:41:24.182Z,24.48
2023-01-19T15:43:51.583Z,20.20
2023-01-19T15:46:23.595Z,19.88
2023-01-19T15:48:50.676Z,19.75
2023-01-19T15:51:20.657Z,19.20
2023-01-19T15:53:48.569Z,19.17
2023-01-19T15:56:35.653Z,19.75
2023-01-19T15:59:02.377Z,17.55
2023-01-19T16:01:33.790Z,16.17
2023-01-19T16:04:04.693Z,17.00
2023-01-19T16:06:33.178Z,25.95
2023-01-19T16:09:01.364Z,23.80
2023-01-19T16:11:34.486Z,20.13
2023-01-19T16:14:01.853Z,20.63
2023-01-19T16:16:28.727Z,20.67
2023-01-19T16:18:56.054Z,20.63
2023-01-19T16:21:23.811Z,21.83
2023-01-19T16:23:50.986Z,14.10
2023-01-19T16:26:34.149Z,19.40
2023-01-19T16:29:08.932Z,18.80
2023-01-19T16:31:37.767Z,18.58
2023-01-19T16:34:04.733Z,20.25
2023-01-19T16:36:34.345Z,17.17
2023-01-19T16:39:05.597Z,26.48
2023-01-19T16:41:36.655Z,11.82
2023-01-19T16:44:05.002Z,26.13
2023-01-19T16:46:38.615Z,22.73
2023-01-19T16:49:20.097Z,23.60
2023-01-19T16:51:47.774Z,20.20
2023-01-19T16:54:18.040Z,22.10
2023-01-19T16:56:45.192Z,20.15
2023-01-19T16:59:13.824Z,19.77
2023-01-19T17:01:41.295Z,24.02
2023-01-19T17:04:08.229Z,20.35
2023-01-19T17:06:34.943Z,23.70
2023-01-19T17:09:01.973Z,16.27
2023-01-19T17:11:31.174Z,19.95
2023-01-19T17:14:05.518Z,19.27
2023-01-19T17:16:34.226Z,20.38
2023-01-19T17:19:03.557Z,20.88
2023-01-19T17:21:30.391Z,17.23
2023-01-19T17:23:58.107Z,21.80
2023-01-19T17:26:31.098Z,16.15
2023-01-19T17:29:00.863Z,16.80
2023-01-19T17:31:29.905Z,16.85
2023-01-19T17:33:56.768Z,18.10
2023-01-19T17:36:25.333Z,19.08
2023-01-19T17:38:54.577Z,19.10
2023-01-19T17:41:30.997Z,18.08
2023-01-19T17:43:59.680Z,16.42
2023-01-19T17:46:28.656Z,12.75
2023-01-19T17:49:01.452Z,17.48
2023-01-19T17:51:29.715Z,13.15
2023-01-19T17:53:57.379Z,23.75
2023-01-19T17:56:29.729Z,14.45
2023-01-19T17:58:58.345Z,16.30
2023-01-19T18:01:31.311Z,12.77
2023-01-19T18:03:59.067Z,21.20
2023-01-19T18:06:26.117Z,17.95
2023-01-19T18:08:52.951Z,12.40
2023-01-19T18:11:20.808Z,20.35
2023-01-19T18:13:49.482Z,18.65
2023-01-19T18:16:25.706Z,19.33
2023-01-19T18:18:54.434Z,18.02
2023-01-19T18:21:23.316Z,16.33
2023-01-19T18:23:50.961Z,21.33
2023-01-19T18:26:22.320Z,16.30
2023-01-19T18:28:50.017Z,13.37
2023-01-19T18:31:19.003Z,14.85
2023-01-19T18:33:47.878Z,15.80
2023-01-19T18:36:15.785Z,13.85
2023-01-19T18:38:44.684Z,15.02
2023-01-19T18:41:17.528Z,11.90
2023-01-19T18:43:45.016Z,17.60
2023-01-19T18:46:12.184Z,15.50
2023-01-19T18:48:39.777Z,14.63
2023-01-19T18:51:13.524Z,11.55
2023-01-19T18:53:40.883Z,11.55
2023-01-19T18:56:10.098Z,18.45
2023-01-19T18:58:38.411Z,13.50
2023-01-19T19:01:17.409Z,13.30
2023-01-19T19:03:44.252Z,14.88
2023-01-19T19:06:11.568Z,15.60
2023-01-19T19:08:38.377Z,11.60
2023-01-19T19:11:08.867Z,18.70
2023-01-19T19:13:35.903Z,14.00
2023-01-19T19:16:08.878Z,16.35
2023-01-19T19:18:37.276Z,17.10
2023-01-19T19:21:09.625Z,13.77
2023-01-19T19:26:07.868Z,14.15
2023-01-19T19:28:36.929Z,11.25
2023-01-19T19:31:12.298Z,17.23
2023-01-19T19:33:40.119Z,16.35
2023-01-19T19:36:08.755Z,12.25
2023-01-19T19:38:40.846Z,19.58
2023-01-19T19:41:11.551Z,16.50
2023-01-19T19:43:38.651Z,14.30
2023-01-19T19:46:14.621Z,21.30
2023-01-19T19:48:41.674Z,12.63
2023-01-19T19:51:22.573Z,24.48
2023-01-19T19:53:51.781Z,25.23
2023-01-19T19:56:21.109Z,25.92
2023-01-19T19:58:48.929Z,20.42
2023-01-19T20:01:24.689Z,22.98
2023-01-19T20:03:53.596Z,22.38
2023-01-19T20:06:23.520Z,15.35
2023-01-19T20:08:53.878Z,18.88
2023-01-19T20:11:24.342Z,22.45
2023-01-19T20:13:51.190Z,20.27
2023-01-19T20:16:21.780Z,17.05
2023-01-19T20:18:54.143Z,17.92
2023-01-19T20:21:27.671Z,17.60
2023-01-19T20:23:59.596Z,17.30
2023-01-19T20:26:31.714Z,17.50
2023-01-19T20:29:02.926Z,15.05
2023-01-19T20:31:33.283Z,16.30
2023-01-19T20:34:06.839Z,20.20
2023-01-19T20:36:34.186Z,21.08
2023-01-19T20:39:08.191Z,18.13
2023-01-19T20:41:42.750Z,27.40
2023-01-19T20:44:19.777Z,20.88
2023-01-19T20:46:47.664Z,22.10
2023-01-19T20:49:15.162Z,21.42
2023-01-19T20:51:45.011Z,32.08
2023-01-19T20:54:14.966Z,23.15
2023-01-19T20:56:41.784Z,27.25
2023-01-19T20:59:10.348Z,21.50
2023-01-19T21:01:38.016Z,25.08
2023-01-19T21:04:05.031Z,22.65
2023-01-19T21:06:32.171Z,21.58
2023-01-19T21:08:58.914Z,20.27
2023-01-19T21:11:25.684Z,22.70
2023-01-19T21:13:55.591Z,26.63
2023-01-19T21:16:31.835Z,20.42
2023-01-19T21:18:58.814Z,24.73
2023-01-19T21:21:30.706Z,25.98
2023-01-19T21:26:31.507Z,22.98
2023-01-19T21:29:00.372Z,18.60
2023-01-19T21:31:28.188Z,18.85
2023-01-19T21:33:58.106Z,16.02
2023-01-19T21:36:25.711Z,21.65
2023-01-19T21:38:55.252Z,24.27
2023-01-19T21:41:22.009Z,18.63
2023-01-19T21:43:48.756Z,22.30
2023-01-19T21:46:22.672Z,21.08
2023-01-19T21:48:49.479Z,27.67
2023-01-19T21:51:16.347Z,27.70
2023-01-19T21:53:43.271Z,29.52
2023-01-19T21:56:11.455Z,28.25
2023-01-19T21:58:38.317Z,23.73
2023-01-19T22:01:13.641Z,20.13
2023-01-19T22:03:41.497Z,22.05
2023-01-19T22:06:11.970Z,21.67
2023-01-19T22:08:39.602Z,23.02
2023-01-19T22:11:09.822Z,28.05
2023-01-19T22:13:40.562Z,21.38
2023-01-19T22:16:12.416Z,24.45
2023-01-19T22:18:41.946Z,26.08
2023-01-19T22:21:16.543Z,26.02
2023-01-19T22:23:44.193Z,18.40
2023-01-19T22:26:11.737Z,20.63
2023-01-19T22:28:38.529Z,19.48
2023-01-19T22:31:09.288Z,47.10
2023-01-19T22:33:36.564Z,34.47
2023-01-19T22:36:24.947Z,22.30
2023-01-19T22:39:01.142Z,26.35
2023-01-19T22:41:34.580Z,25.48
2023-01-19T22:44:04.824Z,25.98
2023-01-19T22:46:33.979Z,27.00
2023-01-19T22:49:01.228Z,31.98
2023-01-19T22:51:31.682Z,28.90
2023-01-19T22:53:58.512Z,29.40
2023-01-19T22:56:28.386Z,31.30
2023-01-19T22:58:55.838Z,33.17
2023-01-19T23:01:26.094Z,25.45
2023-01-19T23:03:54.971Z,35.58
2023-01-19T23:06:25.106Z,28.45
2023-01-19T23:08:52.489Z,37.25
2023-01-19T23:11:26.040Z,29.15
2023-01-19T23:13:53.351Z,29.65
2023-01-19T23:16:20.825Z,30.60
2023-01-19T23:18:48.178Z,35.75
2023-01-19T23:21:18.212Z,27.20
2023-01-19T23:23:45.617Z,28.45
2023-01-19T23:26:19.345Z,31.65
2023-01-19T23:28:47.175Z,27.35
2023-01-19T23:31:14.139Z,26.60
2023-01-19T23:33:41.540Z,27.58
2023-01-19T23:36:08.703Z,31.05
2023-01-19T23:38:35.407Z,30.02
2023-01-19T23:41:02.136Z,29.50
2023-01-19T23:43:28.906Z,28.42
2023-01-19T23:45:55.667Z,27.70
2023-01-19T23:48:22.409Z,28.13
2023-01-19T23:50:49.127Z,30.35
2023-01-19T23:53:15.844Z,34.15
2023-01-19T23:55:42.668Z,43.75
2023-01-19T23:58:09.471Z,28.45
